Time;durP1;ratioP1;P1;durP2;ratioP2;P2;SDS_P1;SDS_P2;PMS_P1;PMS_P2;Temp;Humidity;BMP_temperature;BMP_pressure;BME280_temperature;BME280_humidity;BME280_pressure;Samples;Min_cycle;Max_cycle;Signal;HPM_P1;HPM_P2
2021/11/07 00:00:23;;;;;;;28.00;20.30;;;;;;;8.14;75.94;98357.27;116900;1177;68667;-64
2021/11/07 00:03:24;;;;;;;22.00;16.10;;;;;;;8.16;75.59;98359.08;116829;1177;68722;-64
2021/11/07 00:11:07;;;;;;;33.50;23.50;;;;;;;8.19;74.39;98337.61;116878;1177;70553;-64
2021/11/07 00:13:36;;;;;;;40.70;28.60;;;;;;;8.18;74.69;98338.35;116914;1177;67681;-64
2021/11/07 00:16:12;;;;;;;34.80;22.30;;;;;;;8.15;75.04;98342.79;116910;1177;68928;-64
2021/11/07 00:18:47;;;;;;;20.50;15.30;;;;;;;8.16;74.41;98341.02;116902;1177;58811;-63
2021/11/07 00:21:22;;;;;;;34.50;23.40;;;;;;;8.18;74.36;98336.80;116777;1179;58737;-64
2021/11/07 00:29:19;;;;;;;33.80;24.10;;;;;;;8.10;77.25;98335.79;116924;1177;67759;-65
2021/11/07 00:32:02;;;;;;;30.30;21.60;;;;;;;8.11;76.22;98339.54;116970;1177;58774;-63
2021/11/07 00:37:35;;;;;;;25.30;18.00;;;;;;;8.12;75.05;98338.98;116635;1177;68788;-65
2021/11/07 00:42:51;;;;;;;33.40;25.40;;;;;;;8.03;76.81;98325.86;116906;1177;69212;-66
2021/11/07 00:50:58;;;;;;;26.20;21.60;;;;;;;8.00;75.88;98320.25;116764;1177;70721;-63
2021/11/07 01:01:39;;;;;;;30.10;22.20;;;;;;;7.84;76.42;98289.80;116918;1177;58707;-65
2021/11/07 01:04:11;;;;;;;27.60;20.10;;;;;;;7.79;76.55;98280.16;116941;1177;69777;-64
2021/11/07 01:06:43;;;;;;;24.40;18.90;;;;;;;7.79;76.74;98279.48;116900;1178;67546;-64
2021/11/07 01:09:13;;;;;;;19.70;13.70;;;;;;;7.82;75.96;98279.67;116959;1177;69174;-64
2021/11/07 01:11:43;;;;;;;17.80;13.00;;;;;;;7.87;75.41;98286.56;116950;1177;58675;-64
2021/11/07 01:14:15;;;;;;;29.40;23.70;;;;;;;7.90;75.11;98283.06;116944;1177;58706;-63
2021/11/07 01:16:44;;;;;;;30.90;22.90;;;;;;;7.91;76.90;98262.90;116932;1177;70370;-64
2021/11/07 01:19:14;;;;;;;34.10;27.50;;;;;;;7.88;77.64;98244.15;116921;1177;68296;-63
2021/11/07 01:21:47;;;;;;;36.60;25.40;;;;;;;7.84;78.01;98233.03;116893;1177;68306;-64
2021/11/07 01:24:24;;;;;;;30.10;24.10;;;;;;;7.83;77.87;98223.02;116895;1177;58745;-64
2021/11/07 01:27:06;;;;;;;30.10;22.00;;;;;;;7.83;77.60;98215.06;116802;1178;58764;-64
2021/11/07 01:29:42;;;;;;;24.70;18.40;;;;;;;7.80;77.39;98206.87;116932;1177;70565;-64
2021/11/07 01:32:16;;;;;;;24.60;18.10;;;;;;;7.78;76.97;98205.23;116838;1178;67698;-63
2021/11/07 01:37:24;;;;;;;26.30;19.50;;;;;;;7.73;76.01;98206.17;116889;1177;58713;-63
2021/11/07 01:42:53;;;;;;;28.80;19.60;;;;;;;7.68;75.52;98215.98;116740;1178;70094;-64
2021/11/07 01:45:29;;;;;;;27.90;19.90;;;;;;;7.66;76.63;98230.27;116779;1177;67790;-64
2021/11/07 01:48:12;;;;;;;22.60;15.60;;;;;;;7.66;75.91;98227.84;116932;1174;69192;-64
2021/11/07 01:50:52;;;;;;;25.60;19.60;;;;;;;7.67;75.48;98218.08;117021;1177;58747;-64
2021/11/07 01:53:36;;;;;;;16.80;14.00;;;;;;;7.67;75.98;98203.17;116917;1177;58686;-64
2021/11/07 01:56:10;;;;;;;25.60;18.90;;;;;;;7.70;75.37;98198.52;116774;1179;69922;-65
2021/11/07 01:58:44;;;;;;;27.40;21.80;;;;;;;7.71;75.70;98201.09;116892;1177;67574;-64
2021/11/07 02:01:22;;;;;;;24.60;16.60;;;;;;;7.69;76.03;98197.00;116937;1177;69239;-64
2021/11/07 02:03:53;;;;;;;24.50;18.20;;;;;;;7.64;77.70;98189.94;116927;1177;58658;-65
2021/11/07 02:06:23;;;;;;;25.90;17.40;;;;;;;7.58;77.04;98190.75;116783;1177;58749;-64
2021/11/07 02:08:52;;;;;;;26.80;19.90;;;;;;;7.50;77.81;98189.60;116751;1178;70542;-64
2021/11/07 02:11:24;;;;;;;27.20;21.00;;;;;;;7.43;78.40;98182.66;116927;1177;68503;-64
2021/11/07 02:13:55;;;;;;;32.30;23.50;;;;;;;7.37;79.03;98171.99;116951;1177;67488;-65
2021/11/07 02:16:25;;;;;;;24.60;18.50;;;;;;;7.35;79.21;98170.55;116897;1177;58740;-63
2021/11/07 02:18:55;;;;;;;21.90;14.70;;;;;;;7.36;79.04;98178.48;116896;1180;58699;-64
2021/11/07 02:21:24;;;;;;;;;;;;;;;7.39;77.61;98178.83;116921;1177;69995;-64
2021/11/07 02:24:00;;;;;;;23.20;15.60;;;;;;;7.42;77.47;98173.14;116840;1177;67671;-64
2021/11/07 02:26:31;;;;;;;22.80;17.20;;;;;;;7.48;76.72;98170.60;116862;1177;68335;-64
2021/11/07 02:29:01;;;;;;;;;;;;;;;7.49;77.38;98168.30;116926;1177;58750;-64
2021/11/07 02:31:31;;;;;;;34.70;25.20;;;;;;;7.46;79.36;98161.88;116983;1177;58728;-64
2021/11/07 02:34:01;;;;;;;32.60;25.10;;;;;;;7.43;79.74;98161.82;116863;1177;70538;-65
2021/11/07 02:36:32;;;;;;;33.10;24.80;;;;;;;7.43;79.72;98162.36;116883;1178;68411;-65
2021/11/07 02:39:03;;;;;;;28.70;21.60;;;;;;;7.45;79.98;98164.71;116715;1178;69293;-64
2021/11/07 02:41:34;;;;;;;25.50;19.70;;;;;;;7.41;80.42;98165.42;116838;1177;58723;-64
2021/11/07 02:44:05;;;;;;;28.00;19.60;;;;;;;7.47;79.47;98167.56;116922;1177;58661;-65
2021/11/07 02:46:35;;;;;;;24.50;18.50;;;;;;;7.47;79.44;98161.80;116976;1177;69565;-65
2021/11/07 02:49:05;;;;;;;;;;;;;;;7.46;78.98;98157.50;116917;1177;68411;-65
2021/11/07 02:51:37;;;;;;;21.60;15.20;;;;;;;7.46;78.68;98160.83;116912;1177;69223;-66
2021/11/07 02:54:08;;;;;;;26.90;20.60;;;;;;;7.45;78.52;98162.11;116938;1177;58671;-63
2021/11/07 02:56:38;;;;;;;26.20;18.70;;;;;;;7.37;79.34;98155.71;116948;1177;58720;-64
2021/11/07 02:59:18;;;;;;;27.40;20.40;;;;;;;7.36;79.40;98148.14;116893;1177;69585;-65
2021/11/07 03:01:51;;;;;;;24.40;18.50;;;;;;;7.33;79.74;98141.47;116777;1177;67597;-64
2021/11/07 03:04:25;;;;;;;24.00;18.10;;;;;;;7.36;79.31;98142.75;116877;1177;69015;-64
2021/11/07 03:06:56;;;;;;;19.00;15.00;;;;;;;7.40;79.09;98144.27;116933;1177;58729;-64
2021/11/07 03:09:32;;;;;;;24.30;16.90;;;;;;;7.46;78.06;98134.11;116946;1177;58764;-64
2021/11/07 03:12:04;;;;;;;25.50;18.50;;;;;;;7.49;77.83;98129.80;116961;1177;69722;-64
2021/11/07 03:14:41;;;;;;;25.60;18.30;;;;;;;7.51;78.57;98129.04;116931;1177;67605;-64
2021/11/07 03:17:14;;;;;;;27.70;19.20;;;;;;;7.53;78.95;98129.77;116939;1177;69274;-64
2021/11/07 03:19:44;;;;;;;24.30;18.90;;;;;;;7.56;78.58;98131.56;116949;1177;58711;-64
2021/11/07 03:22:20;;;;;;;34.80;24.90;;;;;;;7.58;78.22;98125.20;116929;1177;58736;-65
2021/11/07 03:24:57;;;;;;;29.00;23.40;;;;;;;7.59;79.50;98114.92;116664;1177;70576;-65
2021/11/07 03:27:34;;;;;;;30.70;23.20;;;;;;;7.58;79.85;98109.39;116755;1178;67692;-63
2021/11/07 03:33:12;;;;;;;20.60;15.20;;;;;;;7.59;79.24;98104.66;116911;1177;58741;-64
2021/11/07 03:35:45;;;;;;;23.30;16.80;;;;;;;7.62;78.19;98108.34;116968;1178;58761;-63
2021/11/07 03:38:16;;;;;;;22.60;16.00;;;;;;;7.64;78.19;98104.26;116882;1177;70073;-63
2021/11/07 03:40:46;;;;;;;23.60;17.10;;;;;;;7.65;78.61;98100.36;116944;1177;68652;-64
2021/11/07 03:43:17;;;;;;;23.30;17.20;;;;;;;7.66;78.31;98098.40;116841;1177;69075;-64
2021/11/07 03:45:47;;;;;;;28.00;20.80;;;;;;;7.67;78.58;98094.73;116794;1177;58708;-64
2021/11/07 03:48:17;;;;;;;29.10;19.30;;;;;;;7.67;79.50;98099.27;116838;1178;58764;-64
2021/11/07 03:50:46;;;;;;;29.10;22.60;;;;;;;7.65;79.21;98106.07;116855;1177;70362;-65
2021/11/07 03:53:17;;;;;;;;;;;;;;;7.66;79.27;98108.32;116934;1177;68179;-64
2021/11/07 03:55:47;;;;;;;19.10;15.20;;;;;;;7.67;78.39;98116.41;116964;1177;68655;-65
2021/11/07 03:58:17;;;;;;;15.60;11.20;;;;;;;7.69;77.86;98119.65;116913;1177;58704;-64
2021/11/07 04:00:47;;;;;;;24.10;18.70;;;;;;;7.71;77.33;98126.81;116948;1177;58720;-64
2021/11/07 04:03:17;;;;;;;31.90;21.80;;;;;;;7.66;79.34;98135.20;116920;1177;70834;-64
2021/11/07 04:05:46;;;;;;;21.80;16.10;;;;;;;7.60;79.88;98138.27;116906;1177;68223;-63
2021/11/07 04:08:16;;;;;;;20.40;15.10;;;;;;;7.63;78.34;98141.09;116925;1177;69280;-63
2021/11/07 04:10:46;;;;;;;19.00;14.90;;;;;;;7.64;77.78;98142.73;116971;1177;58720;-64
2021/11/07 04:13:16;;;;;;;23.70;17.60;;;;;;;7.63;78.77;98145.06;116954;1177;58752;-64
2021/11/07 04:15:46;;;;;;;18.10;14.00;;;;;;;7.60;79.26;98145.58;116799;1177;70583;-65
2021/11/07 04:18:16;;;;;;;;;;;;;;;7.61;78.97;98145.16;116940;1177;67466;-64
2021/11/07 04:20:46;;;;;;;21.80;16.10;;;;;;;7.64;78.39;98152.84;116884;1173;69160;-65
2021/11/07 04:23:15;;;;;;;17.70;14.60;;;;;;;7.64;78.30;98151.59;116937;1177;58718;-64
2021/11/07 04:25:45;;;;;;;12.20;9.20;;;;;;;7.64;77.95;98144.31;116762;1179;58704;-64
2021/11/07 04:28:15;;;;;;;12.60;8.60;;;;;;;7.65;77.52;98142.34;116863;1177;69810;-64
2021/11/07 04:30:46;;;;;;;13.80;9.70;;;;;;;7.67;77.34;98137.94;116781;1177;67617;-65
2021/11/07 04:33:16;;;;;;;11.30;8.50;;;;;;;7.65;77.49;98139.23;116944;1177;69112;-65
2021/11/07 04:35:47;;;;;;;12.30;8.80;;;;;;;7.66;77.23;98134.66;117031;1177;58770;-63
2021/11/07 04:38:18;;;;;;;13.00;8.60;;;;;;;7.69;76.93;98129.70;116883;1177;58691;-64
2021/11/07 04:40:48;;;;;;;13.60;11.00;;;;;;;7.71;76.73;98127.33;116945;1177;69567;-64
2021/11/07 04:43:18;;;;;;;;;;;;;;;7.72;77.21;98128.31;116986;1177;68411;-64
2021/11/07 04:45:47;;;;;;;22.80;17.20;;;;;;;7.72;78.43;98125.89;116949;1177;68895;-64
2021/11/07 04:48:19;;;;;;;17.90;14.90;;;;;;;7.72;78.74;98120.67;116856;1177;58720;-64
2021/11/07 04:50:50;;;;;;;14.50;10.80;;;;;;;7.72;77.91;98118.95;116778;1179;58808;-65
2021/11/07 04:53:23;;;;;;;24.10;18.30;;;;;;;7.72;77.68;98120.34;116987;1177;70493;-64
2021/11/07 04:55:52;;;;;;;22.40;16.80;;;;;;;7.72;78.26;98121.23;116975;1177;67182;-64
2021/11/07 04:58:21;;;;;;;23.20;17.90;;;;;;;7.71;78.05;98118.30;116932;1177;68636;-65
2021/11/07 05:00:51;;;;;;;22.10;17.50;;;;;;;7.70;78.30;98123.91;116773;1178;59253;-63
2021/11/07 05:03:21;;;;;;;14.80;12.50;;;;;;;7.70;78.18;98125.50;116993;1177;58717;-64
2021/11/07 05:05:51;;;;;;;15.50;12.80;;;;;;;7.69;78.85;98128.46;116875;1178;69600;-64
2021/11/07 05:08:21;;;;;;;13.60;10.70;;;;;;;7.68;78.53;98137.90;116795;1177;69388;-64
2021/11/07 05:10:50;;;;;;;21.20;15.10;;;;;;;7.68;78.67;98136.35;116863;1177;68493;-65
2021/11/07 05:13:20;;;;;;;22.00;15.60;;;;;;;7.64;80.41;98134.06;116945;1177;58710;-65
2021/11/07 05:15:50;;;;;;;17.80;13.20;;;;;;;7.65;78.44;98127.77;116939;1177;58703;-65
2021/11/07 05:18:20;;;;;;;20.80;15.10;;;;;;;7.67;78.29;98124.58;116959;1177;69013;-63
2021/11/07 05:20:49;;;;;;;21.10;15.90;;;;;;;7.68;78.44;98118.13;116776;1177;67495;-63
2021/11/07 05:23:19;;;;;;;19.10;12.90;;;;;;;7.70;80.21;98108.48;116777;1177;68397;-63
2021/11/07 05:25:49;;;;;;;25.40;19.90;;;;;;;7.70;79.84;98090.94;116903;1177;58806;-63
2021/11/07 05:28:18;;;;;;;25.80;17.80;;;;;;;7.61;82.10;98067.29;116898;1177;58727;-65
2021/11/07 05:30:48;;;;;;;23.70;18.20;;;;;;;7.51;82.79;98041.07;116953;1177;70558;-64
2021/11/07 05:33:18;;;;;;;26.60;21.00;;;;;;;7.51;82.41;98031.89;116840;1177;67666;-63
2021/11/07 05:35:48;;;;;;;21.60;16.00;;;;;;;7.50;81.84;98027.39;116946;1177;68502;-63
2021/11/07 05:38:17;;;;;;;26.50;19.70;;;;;;;7.54;80.69;98034.12;116936;1177;59164;-63
2021/11/07 05:40:47;;;;;;;37.50;29.60;;;;;;;7.54;82.06;98037.77;116899;1176;58724;-64
2021/11/07 05:43:16;;;;;;;27.50;21.50;;;;;;;7.52;82.84;98031.66;116773;1179;69811;-64
2021/11/07 05:45:46;;;;;;;40.80;28.70;;;;;;;7.56;81.35;98032.15;116936;1170;68286;-63
2021/11/07 05:48:16;;;;;;;32.90;22.80;;;;;;;7.53;82.15;98036.83;116936;1177;69228;-63
2021/11/07 05:50:47;;;;;;;39.00;28.10;;;;;;;7.52;82.76;98037.91;116896;1177;58742;-64
2021/11/07 05:53:17;;;;;;;23.40;17.20;;;;;;;7.46;83.04;98036.62;116898;1177;58784;-63
2021/11/07 05:55:46;;;;;;;22.70;17.70;;;;;;;7.51;82.00;98030.46;116910;1177;70319;-63
2021/11/07 05:58:16;;;;;;;20.40;14.00;;;;;;;7.56;81.01;98025.89;116931;1177;67600;-64
2021/11/07 06:00:46;;;;;;;21.90;17.20;;;;;;;7.63;80.35;98026.26;116879;1177;69334;-63
2021/11/07 06:03:16;;;;;;;20.70;15.30;;;;;;;7.67;80.03;98018.06;116874;1177;58725;-64
2021/11/07 06:05:45;;;;;;;27.00;20.40;;;;;;;7.72;79.87;98002.20;116916;1177;58762;-64
2021/11/07 06:08:15;;;;;;;30.50;22.80;;;;;;;7.75;81.76;97980.67;116912;1177;70240;-65
2021/11/07 06:10:44;;;;;;;34.80;26.20;;;;;;;7.78;82.92;97966.96;116782;1177;68217;-65
2021/11/07 06:13:14;;;;;;;29.10;20.10;;;;;;;7.81;82.94;98003.79;116678;1177;69589;-63
2021/11/07 06:15:43;;;;;;;23.10;17.10;;;;;;;7.88;81.48;98019.89;116831;1177;58749;-64
2021/11/07 06:18:13;;;;;;;15.50;11.40;;;;;;;7.95;81.18;98020.23;116819;1177;58738;-66
2021/11/07 06:20:42;;;;;;;23.80;18.00;;;;;;;8.03;80.40;98022.95;116839;1177;70065;-63
2021/11/07 06:23:11;;;;;;;27.40;20.50;;;;;;;8.10;80.16;98023.42;116704;1178;68778;-64
2021/11/07 06:25:41;;;;;;;20.60;16.20;;;;;;;8.17;80.31;98027.07;116826;1177;68520;-64
2021/11/07 06:28:10;;;;;;;22.00;17.40;;;;;;;8.23;80.86;98034.02;116896;1177;58670;-63
2021/11/07 06:30:40;;;;;;;32.20;23.60;;;;;;;8.30;80.96;98024.48;116793;1177;58716;-65
2021/11/07 06:33:09;;;;;;;20.30;15.80;;;;;;;8.34;82.05;98015.05;116829;1177;70730;-63
2021/11/07 06:35:38;;;;;;;27.50;21.50;;;;;;;8.43;81.56;98012.31;116814;1177;68982;-65
2021/11/07 06:38:09;;;;;;;17.40;13.20;;;;;;;8.54;81.25;98012.24;116842;1177;68477;-64
2021/11/07 06:40:39;;;;;;;18.80;14.70;;;;;;;8.70;80.14;98016.56;116895;1177;58764;-64
2021/11/07 06:43:08;;;;;;;17.80;13.00;;;;;;;8.94;79.74;98019.05;116909;1177;58739;-64
2021/11/07 06:45:38;;;;;;;17.20;12.80;;;;;;;9.23;79.28;98024.14;116902;1177;71220;-64
2021/11/07 06:48:08;;;;;;;16.50;12.80;;;;;;;9.53;78.78;98025.55;116854;1177;68355;-65
2021/11/07 06:50:37;;;;;;;17.60;14.50;;;;;;;9.81;77.92;98022.99;116888;1177;67578;-65
2021/11/07 06:53:06;;;;;;;13.20;10.70;;;;;;;9.99;77.50;98004.88;116775;1177;58704;-63
2021/11/07 06:55:35;;;;;;;14.90;11.20;;;;;;;10.09;76.49;98002.16;116897;1170;58749;-63
2021/11/07 06:58:04;;;;;;;15.40;11.60;;;;;;;10.16;75.81;98002.27;116739;1179;70673;-64
2021/11/07 07:00:34;;;;;;;14.70;11.50;;;;;;;10.29;75.70;97979.20;116925;1177;67596;-65
2021/11/07 07:03:03;;;;;;;16.40;12.50;;;;;;;10.46;75.14;97972.04;116884;1177;68689;-65
2021/11/07 07:05:33;;;;;;;16.10;11.90;;;;;;;10.64;74.97;97978.20;116934;1177;58703;-66
2021/11/07 07:08:24;;;;;;;17.50;15.10;;;;;;;10.82;74.35;97987.35;116930;1177;58745;-66
2021/11/07 07:10:59;;;;;;;14.20;10.80;;;;;;;10.99;74.22;97988.47;116849;1177;70715;-64
2021/11/07 07:13:37;;;;;;;15.10;11.60;;;;;;;11.21;74.26;97978.86;116872;1177;67836;-63
2021/11/07 07:16:17;;;;;;;14.90;11.30;;;;;;;11.39;73.18;97976.61;116904;1177;69617;-63
2021/11/07 07:19:00;;;;;;;15.40;12.60;;;;;;;11.47;72.59;97969.23;116913;1177;58741;-64
2021/11/07 07:21:44;;;;;;;14.90;11.00;;;;;;;11.58;72.96;97958.52;116894;1177;58688;-64
2021/11/07 07:27:04;;;;;;;16.80;12.80;;;;;;;12.15;71.85;97952.67;116896;1177;68530;-62
2021/11/07 07:34:58;;;;;;;15.70;12.70;;;;;;;13.11;66.97;97962.34;116896;1177;58730;-64
2021/11/07 07:37:28;;;;;;;15.30;12.10;;;;;;;13.25;66.36;97961.17;116934;1174;70566;-65
2021/11/07 07:39:57;;;;;;;12.10;8.90;;;;;;;13.39;66.75;97963.44;116974;1177;67925;-64
2021/11/07 07:42:26;;;;;;;13.70;10.50;;;;;;;13.76;65.92;97949.27;116761;1177;69174;-64
2021/11/07 07:44:55;;;;;;;11.00;8.90;;;;;;;14.12;65.16;97941.52;116802;1177;58724;-62
2021/11/07 07:47:24;;;;;;;11.70;10.00;;;;;;;14.49;63.12;97938.42;116879;1177;58780;-65
2021/11/07 07:49:54;;;;;;;11.60;9.00;;;;;;;14.85;62.92;97934.96;116920;1177;70965;-65
2021/11/07 07:52:27;;;;;;;12.80;9.70;;;;;;;15.15;61.89;97926.82;116838;1177;68088;-65
2021/11/07 07:54:56;;;;;;;11.10;9.00;;;;;;;15.32;60.64;97924.23;116684;1179;68431;-64
2021/11/07 07:57:26;;;;;;;11.70;9.40;;;;;;;15.28;59.45;97925.08;116903;1177;58758;-64
2021/11/07 07:59:55;;;;;;;10.50;9.20;;;;;;;15.32;60.25;97924.95;116916;1177;58715;-65
2021/11/07 08:02:24;;;;;;;14.50;11.70;;;;;;;15.20;59.56;97916.93;116913;1177;70343;-66
2021/11/07 08:04:54;;;;;;;13.00;9.80;;;;;;;14.89;60.27;97912.69;116971;1177;68346;-64
2021/11/07 08:07:24;;;;;;;13.70;10.50;;;;;;;14.78;60.74;97909.21;116937;1177;68455;-66
2021/11/07 08:09:57;;;;;;;11.80;8.80;;;;;;;14.59;61.08;97900.92;116778;1177;58729;-66
2021/11/07 08:12:26;;;;;;;9.30;6.70;;;;;;;14.59;61.73;97899.23;116970;1177;58707;-65
2021/11/07 08:14:57;;;;;;;8.60;6.90;;;;;;;14.91;61.77;97901.16;116785;1178;69582;-65
2021/11/07 08:17:27;;;;;;;8.80;7.60;;;;;;;15.11;60.44;97893.84;116930;1177;67759;-64
2021/11/07 08:20:04;;;;;;;10.20;8.70;;;;;;;15.27;60.46;97888.97;116767;1178;69265;-64
2021/11/07 08:22:36;;;;;;;8.80;6.60;;;;;;;15.34;59.07;97894.39;116470;1179;58782;-64
2021/11/07 08:25:22;;;;;;;8.80;6.90;;;;;;;15.49;59.72;97895.71;116435;1182;58758;-65
2021/11/07 08:28:01;;;;;;;7.50;5.80;;;;;;;15.56;60.19;97891.78;116698;1177;70367;-65
2021/11/07 08:30:42;;;;;;;10.30;8.30;;;;;;;15.54;59.79;97883.91;116789;1178;67747;-64
2021/11/07 08:33:12;;;;;;;;;;;;;;;15.55;60.31;97881.02;116614;1177;68325;-65
2021/11/07 08:35:48;;;;;;;8.60;6.80;;;;;;;15.57;60.04;97877.36;116635;1170;58818;-66
2021/11/07 08:38:27;;;;;;;9.30;7.10;;;;;;;15.58;59.52;97875.51;116572;1180;58675;-64
2021/11/07 08:41:08;;;;;;;9.50;6.80;;;;;;;15.57;59.41;97884.48;116792;1178;71780;-66
2021/11/07 09:00:48;;;;;;;11.50;9.00;;;;;;;15.31;59.80;97874.85;116508;1179;69196;-64
2021/11/07 09:04:18;;;;;;;9.30;7.20;;;;;;;15.22;59.66;97865.52;116491;1177;58720;-64
2021/11/07 09:06:24;;;;;;;13.70;9.60;;;;;;;15.26;59.84;97855.73;116527;1179;58697;-65
2021/11/07 09:08:56;;;;;;;12.10;9.60;;;;;;;15.20;60.03;97854.62;116516;1179;70740;-64
2021/11/07 09:11:29;;;;;;;13.90;8.80;;;;;;;15.33;60.28;97842.35;116691;1178;69083;-65
2021/11/07 09:14:09;;;;;;;10.40;7.40;;;;;;;15.44;59.77;97836.15;116573;1180;69924;-67
2021/11/07 09:16:40;;;;;;;11.90;8.20;;;;;;;15.54;59.36;97834.36;116788;1177;58726;-65
2021/11/07 09:19:19;;;;;;;13.60;8.60;;;;;;;15.55;59.77;97825.65;116696;1179;58748;-64
2021/11/07 09:22:00;;;;;;;10.00;7.70;;;;;;;15.54;59.97;97812.80;116495;1180;70640;-65
2021/11/07 09:24:41;;;;;;;9.80;8.60;;;;;;;15.62;59.33;97808.08;116470;1180;68410;-64
2021/11/07 09:27:37;;;;;;;7.40;6.20;;;;;;;15.52;59.50;97804.46;116703;1179;69974;-64
2021/11/07 09:30:20;;;;;;;12.80;8.60;;;;;;;15.67;59.20;97802.52;116536;1180;58758;-65
2021/11/07 09:33:07;;;;;;;10.70;7.70;;;;;;;15.76;58.54;97798.88;116469;1181;58735;-65
2021/11/07 09:39:07;;;;;;;10.30;8.10;;;;;;;16.05;57.92;97785.42;116496;1179;68688;-66
2021/11/07 09:44:24;;;;;;;9.70;8.30;;;;;;;16.61;56.27;97772.50;116597;1171;58749;-66
2021/11/07 09:47:09;;;;;;;10.40;7.60;;;;;;;16.64;56.46;97762.49;116617;1179;58667;-65
2021/11/07 09:49:53;;;;;;;11.30;9.10;;;;;;;17.17;55.53;97750.41;116546;1179;70543;-64
2021/11/07 09:52:26;;;;;;;10.70;8.00;;;;;;;17.44;54.26;97752.95;116738;1179;68765;-64
2021/11/07 09:55:01;;;;;;;8.90;7.30;;;;;;;17.67;53.34;97753.40;116725;1180;69756;-65
2021/11/07 09:57:30;;;;;;;11.60;8.10;;;;;;;17.91;52.67;97747.36;116772;1178;58723;-64
2021/11/07 10:00:03;;;;;;;9.50;7.30;;;;;;;18.18;52.15;97746.64;116714;1179;58694;-64
2021/11/07 10:02:39;;;;;;;10.70;8.20;;;;;;;18.50;52.09;97738.55;116749;1179;70949;-65
2021/11/07 10:05:17;;;;;;;10.30;8.90;;;;;;;18.56;50.98;97740.75;116767;1178;67514;-67
2021/11/07 10:08:05;;;;;;;9.60;7.50;;;;;;;18.40;51.10;97748.36;116500;1180;70504;-65
2021/11/07 10:10:38;;;;;;;9.00;7.30;;;;;;;18.44;51.44;97746.58;116562;1179;58764;-64
2021/11/07 10:13:22;;;;;;;7.00;5.90;;;;;;;18.38;51.03;97746.30;116711;1179;58743;-66
2021/11/07 10:16:11;;;;;;;6.00;4.80;;;;;;;18.27;51.06;97738.23;116504;1180;69834;-64
2021/11/07 10:18:53;;;;;;;8.20;6.60;;;;;;;18.16;51.52;97730.48;116712;1179;67663;-64
2021/11/07 10:21:34;;;;;;;8.50;6.50;;;;;;;18.26;51.93;97736.55;116362;1181;69947;-65
2021/11/07 10:24:13;;;;;;;10.10;8.20;;;;;;;18.52;52.12;97735.83;116641;1179;58749;-65
2021/11/07 10:26:51;;;;;;;6.90;5.30;;;;;;;18.77;52.06;97736.74;116707;1179;58787;-66
2021/11/07 10:29:35;;;;;;;9.70;6.80;;;;;;;18.88;49.86;97740.16;116516;1179;71037;-65
2021/11/07 10:32:28;;;;;;;9.90;6.90;;;;;;;18.73;50.14;97732.17;116592;1179;68226;-64
2021/11/07 10:38:41;;;;;;;10.50;8.00;;;;;;;17.46;52.84;97731.91;116630;1179;58745;-65
2021/11/07 10:44:27;;;;;;;10.20;8.60;;;;;;;16.77;55.66;97725.66;116752;1180;69886;-66
2021/11/07 10:47:11;;;;;;;11.40;8.70;;;;;;;16.74;56.26;97726.46;116710;1179;69048;-66
2021/11/07 10:52:39;;;;;;;10.30;7.80;;;;;;;16.45;57.30;97735.27;116726;1178;59025;-65
2021/11/07 10:55:31;;;;;;;7.80;6.50;;;;;;;17.03;55.58;97732.52;116529;1179;58740;-65
2021/11/07 10:58:04;;;;;;;8.40;6.40;;;;;;;17.60;54.32;97732.69;116394;1178;70219;-64
2021/11/07 11:00:49;;;;;;;9.40;6.70;;;;;;;18.07;53.83;97729.20;116469;1179;67406;-66
2021/11/07 11:03:28;;;;;;;7.90;6.40;;;;;;;18.66;52.82;97732.67;116538;1179;68438;-65
2021/11/07 11:11:56;;;;;;;9.40;7.40;;;;;;;19.62;50.15;97715.79;116429;1180;70569;-65
2021/11/07 11:14:36;;;;;;;7.80;6.40;;;;;;;20.05;49.18;97715.70;116417;1179;67920;-65
2021/11/07 11:20:25;;;;;;;11.00;8.90;;;;;;;20.75;47.39;97728.12;116611;1180;59136;-64
2021/11/07 11:23:09;;;;;;;13.30;11.60;;;;;;;20.65;47.15;97721.63;116840;1178;58731;-64
2021/11/07 11:25:52;;;;;;;13.40;10.80;;;;;;;20.42;46.94;97732.18;116562;1179;70478;-65
2021/11/07 11:28:46;;;;;;;13.20;10.00;;;;;;;20.15;47.38;97731.89;116789;1179;68913;-65
2021/11/07 11:34:27;;;;;;;14.40;10.70;;;;;;;20.49;47.02;97697.33;116473;1180;58780;-65
2021/11/07 11:40:04;;;;;;;15.10;11.60;;;;;;;20.66;46.23;97696.52;116726;1173;71091;-66
2021/11/07 11:45:08;;;;;;;15.90;13.80;;;;;;;21.38;44.00;97675.08;116854;1179;69997;-65
2021/11/07 11:48:07;;;;;;;15.20;9.90;;;;;;;21.67;43.33;97668.68;116832;1179;58758;-65
2021/11/07 11:50:54;;;;;;;14.60;11.60;;;;;;;22.49;42.13;97671.15;116763;1170;58741;-65
2021/11/07 11:53:41;;;;;;;13.00;11.50;;;;;;;23.26;40.21;97667.84;116809;1178;70667;-65
2021/11/07 11:56:38;;;;;;;13.30;10.40;;;;;;;24.07;40.26;97656.29;116820;1178;67959;-64
2021/11/07 11:59:31;;;;;;;14.10;11.60;;;;;;;24.85;38.17;97645.02;116808;1179;69787;-66
2021/11/07 12:02:20;;;;;;;15.00;11.30;;;;;;;24.79;38.96;97634.13;116816;1179;58741;-64
2021/11/07 12:05:02;;;;;;;10.00;8.80;;;;;;;24.28;38.98;97640.77;116766;1179;58722;-64
2021/11/07 12:07:53;;;;;;;11.00;9.20;;;;;;;23.68;39.63;97647.06;116823;1178;70245;-64
2021/11/07 12:10:28;;;;;;;10.70;9.40;;;;;;;23.27;39.91;97644.22;116836;1179;68791;-65
2021/11/07 12:13:06;;;;;;;11.60;8.30;;;;;;;22.79;40.56;97632.77;116735;1180;69025;-65
2021/11/07 12:15:49;;;;;;;13.20;10.80;;;;;;;22.38;41.54;97628.29;116735;1177;58818;-64
2021/11/07 12:18:18;;;;;;;10.80;9.00;;;;;;;22.01;42.03;97623.72;116884;1177;58732;-65
2021/11/07 12:20:56;;;;;;;10.40;8.30;;;;;;;21.70;42.61;97626.16;116829;1178;70993;-65
2021/11/07 12:23:32;;;;;;;11.10;9.30;;;;;;;21.25;43.54;97629.39;116904;1178;68188;-65
2021/11/07 12:26:25;;;;;;;12.40;10.50;;;;;;;20.87;44.17;97632.79;116925;1179;69952;-65
2021/11/07 12:28:55;;;;;;;15.20;12.40;;;;;;;20.66;44.84;97623.88;116818;1178;58704;-65
2021/11/07 12:31:26;;;;;;;15.20;13.30;;;;;;;20.12;44.89;97617.21;116848;1178;58711;-65
2021/11/07 12:34:21;;;;;;;16.30;14.20;;;;;;;18.93;47.88;97620.30;116862;1179;70535;-65
2021/11/07 12:40:32;;;;;;;16.80;13.20;;;;;;;18.03;50.35;97607.20;116874;1178;68395;-64
2021/11/07 12:42:32;;;;;;;16.50;13.30;;;;;;;17.07;53.72;97606.99;116938;1177;58727;-65
2021/11/07 12:45:30;;;;;;;16.10;13.30;;;;;;;17.06;53.73;97599.30;116771;1177;58721;-64
2021/11/07 12:48:05;;;;;;;11.60;9.10;;;;;;;17.61;52.12;97586.52;116886;1177;70563;-64
2021/11/07 12:50:55;;;;;;;15.80;12.80;;;;;;;17.67;52.25;97573.24;116858;1177;69315;-63
2021/11/07 12:53:49;;;;;;;17.50;13.40;;;;;;;17.76;51.53;97566.06;116901;1177;69706;-64
2021/11/07 12:56:49;;;;;;;12.80;10.40;;;;;;;17.72;52.02;97568.00;116966;1177;58742;-64
2021/11/07 12:59:43;;;;;;;21.60;17.30;;;;;;;17.57;52.59;97562.41;116954;1177;58732;-63
2021/11/07 13:02:18;;;;;;;19.10;15.30;;;;;;;16.85;55.20;97561.33;116951;1177;70616;-64
2021/11/07 13:05:01;;;;;;;20.20;15.10;;;;;;;17.00;54.35;97561.70;116886;1177;68836;-64
2021/11/07 13:10:44;;;;;;;22.40;17.30;;;;;;;16.61;55.62;97555.17;116962;1177;58746;-65
2021/11/07 13:24:32;;;;;;;19.50;15.60;;;;;;;16.42;57.09;97533.09;116883;1177;59494;-64
2021/11/07 13:32:34;;;;;;;19.50;16.10;;;;;;;16.58;56.94;97523.44;116918;1177;68452;-64
2021/11/07 13:35:09;;;;;;;20.80;16.50;;;;;;;16.88;56.00;97525.05;116888;1177;69298;-63
2021/11/07 13:37:57;;;;;;;18.00;13.80;;;;;;;16.92;55.97;97527.05;116868;1177;59552;-63
2021/11/07 13:40:32;;;;;;;13.40;12.00;;;;;;;16.97;55.47;97528.16;116874;1177;59543;-64
2021/11/07 13:43:08;;;;;;;17.30;13.20;;;;;;;16.93;55.61;97522.77;116873;1178;71122;-65
2021/11/07 13:45:40;;;;;;;20.60;16.60;;;;;;;16.91;55.56;97521.18;116863;1177;68187;-65
2021/11/07 13:48:12;;;;;;;18.50;15.90;;;;;;;16.65;56.36;97522.08;116885;1178;69940;-65
2021/11/07 13:50:42;;;;;;;20.80;16.10;;;;;;;16.43;56.90;97508.85;116897;1177;59546;-63
2021/11/07 13:53:24;;;;;;;17.10;12.30;;;;;;;16.27;57.71;97509.29;116826;1178;59545;-66